RW275 LZKZ-LKPR
Flight info
| Callsign | RW275 |
|---|---|
| Flight time | 1h 39m |
| Altitude | 16000 |
| Route | MARKA R232 PPD P27 UPLAV L726 VLM |
| Aircraft | DA42/L-VGDW/C |
Departure
| Time | 2026-04-22 17:22 |
|---|---|
| Airport | Košice International Airport (LZKZ) |
Arrival
| Time | 2026-04-22 19:02 |
|---|---|
| Airport | Václav Havel Airport Prague (LKPR) |
| Time | Latitude | Longitude | Altitude | Speed | Heading |
|---|---|---|---|---|---|
| 2026-04-22 16:33 | 48.67184 | 21.23834 | 752 ft | 0 kts | 330° |
| 2026-04-22 17:14 | 48.67187 | 21.23831 | 748 ft | 2 kts | 330° |
| 2026-04-22 17:14 | 48.67209 | 21.23841 | 752 ft | 5 kts | 79° |
| 2026-04-22 17:14 | 48.67200 | 21.23929 | 752 ft | 15 kts | 103° |
| 2026-04-22 17:15 | 48.67191 | 21.23983 | 752 ft | 18 kts | 103° |
| 2026-04-22 17:15 | 48.67206 | 21.24158 | 752 ft | 9 kts | 16° |
| 2026-04-22 17:15 | 48.67258 | 21.24200 | 751 ft | 8 kts | 75° |
| 2026-04-22 17:15 | 48.67249 | 21.24281 | 752 ft | 9 kts | 102° |
| 2026-04-22 17:16 | 48.67232 | 21.24398 | 750 ft | 11 kts | 98° |
| 2026-04-22 17:16 | 48.67208 | 21.24554 | 752 ft | 19 kts | 103° |
| 2026-04-22 17:16 | 48.67168 | 21.24736 | 751 ft | 15 kts | 144° |
| 2026-04-22 17:16 | 48.67066 | 21.24731 | 752 ft | 16 kts | 193° |
| 2026-04-22 17:17 | 48.66947 | 21.24690 | 751 ft | 18 kts | 194° |
| 2026-04-22 17:17 | 48.66823 | 21.24645 | 752 ft | 18 kts | 192° |
| 2026-04-22 17:17 | 48.66698 | 21.24602 | 752 ft | 19 kts | 191° |
| 2026-04-22 17:17 | 48.66573 | 21.24558 | 752 ft | 18 kts | 193° |
| 2026-04-22 17:18 | 48.66448 | 21.24515 | 752 ft | 18 kts | 193° |
| 2026-04-22 17:18 | 48.66324 | 21.24472 | 752 ft | 18 kts | 193° |
| 2026-04-22 17:18 | 48.66201 | 21.24426 | 752 ft | 18 kts | 192° |
| 2026-04-22 17:18 | 48.66077 | 21.24383 | 752 ft | 18 kts | 193° |
| 2026-04-22 17:19 | 48.65878 | 21.24259 | 752 ft | 13 kts | 270° |
| 2026-04-22 17:19 | 48.65927 | 21.24018 | 749 ft | 12 kts | 316° |
| 2026-04-22 17:20 | 48.65965 | 21.24000 | 750 ft | 0 kts | 12° |
| 2026-04-22 17:21 | 48.66293 | 21.24119 | 751 ft | 73 kts | 14° |
| 2026-04-22 17:22 | 48.67475 | 21.24497 | 1342 ft | 83 kts | 11° |
| 2026-04-22 17:22 | 48.68026 | 21.24664 | 1705 ft | 80 kts | 11° |
| 2026-04-22 17:22 | 48.69043 | 21.25077 | 2365 ft | 79 kts | 13° |
| 2026-04-22 17:23 | 48.69566 | 21.25344 | 2710 ft | 79 kts | 14° |
| 2026-04-22 17:23 | 48.70602 | 21.25908 | 3443 ft | 80 kts | 14° |
| 2026-04-22 17:23 | 48.71127 | 21.26192 | 3811 ft | 80 kts | 14° |
| 2026-04-22 17:24 | 48.71655 | 21.26469 | 4173 ft | 80 kts | 13° |
| 2026-04-22 17:24 | 48.72194 | 21.26673 | 4532 ft | 79 kts | 8° |
| 2026-04-22 17:24 | 48.72732 | 21.26854 | 4888 ft | 79 kts | 8° |
| 2026-04-22 17:24 | 48.73276 | 21.27003 | 5225 ft | 79 kts | 7° |
| 2026-04-22 17:25 | 48.73790 | 21.26787 | 5559 ft | 82 kts | 322° |
| 2026-04-22 17:25 | 48.73986 | 21.25937 | 5891 ft | 95 kts | 276° |
| 2026-04-22 17:25 | 48.73746 | 21.24953 | 6255 ft | 102 kts | 255° |
| 2026-04-22 17:25 | 48.73512 | 21.23955 | 6602 ft | 99 kts | 268° |
| 2026-04-22 17:26 | 48.73338 | 21.22941 | 6944 ft | 100 kts | 265° |
| 2026-04-22 17:26 | 48.73212 | 21.22264 | 7164 ft | 101 kts | 265° |
| 2026-04-22 17:26 | 48.72955 | 21.20886 | 7608 ft | 102 kts | 265° |
| 2026-04-22 17:26 | 48.72830 | 21.20203 | 7842 ft | 102 kts | 265° |
| 2026-04-22 17:27 | 48.72646 | 21.19164 | 8178 ft | 102 kts | 265° |
| 2026-04-22 17:27 | 48.72468 | 21.18120 | 8518 ft | 102 kts | 265° |
| 2026-04-22 17:27 | 48.72294 | 21.17072 | 8854 ft | 104 kts | 263° |
| 2026-04-22 17:27 | 48.72096 | 21.16018 | 9217 ft | 104 kts | 265° |
| 2026-04-22 17:28 | 48.72069 | 21.14963 | 9582 ft | 98 kts | 294° |
| 2026-04-22 17:28 | 48.72333 | 21.14041 | 9947 ft | 96 kts | 303° |
| 2026-04-22 17:28 | 48.72628 | 21.13138 | 10292 ft | 96 kts | 304° |
| 2026-04-22 17:28 | 48.72941 | 21.12230 | 10604 ft | 98 kts | 305° |
| 2026-04-22 17:29 | 48.73256 | 21.11338 | 10909 ft | 99 kts | 306° |
| 2026-04-22 17:29 | 48.73587 | 21.10417 | 11213 ft | 100 kts | 306° |
| 2026-04-22 17:29 | 48.73925 | 21.09488 | 11529 ft | 101 kts | 307° |
| 2026-04-22 17:29 | 48.74266 | 21.08553 | 11848 ft | 102 kts | 307° |
| 2026-04-22 17:30 | 48.74610 | 21.07610 | 12155 ft | 103 kts | 307° |
| 2026-04-22 17:30 | 48.74948 | 21.06645 | 12468 ft | 104 kts | 307° |
| 2026-04-22 17:30 | 48.75297 | 21.05703 | 12801 ft | 104 kts | 309° |
| 2026-04-22 17:30 | 48.75654 | 21.04740 | 13150 ft | 106 kts | 309° |
| 2026-04-22 17:31 | 48.76014 | 21.03762 | 13490 ft | 107 kts | 309° |
| 2026-04-22 17:31 | 48.76376 | 21.02774 | 13822 ft | 108 kts | 309° |
| 2026-04-22 17:31 | 48.76741 | 21.01775 | 14133 ft | 109 kts | 309° |
| 2026-04-22 17:31 | 48.77110 | 21.00769 | 14423 ft | 110 kts | 309° |
| 2026-04-22 17:32 | 48.77479 | 20.99748 | 14750 ft | 111 kts | 309° |
| 2026-04-22 17:32 | 48.77849 | 20.98712 | 15025 ft | 113 kts | 309° |
| 2026-04-22 17:32 | 48.78214 | 20.97655 | 15320 ft | 116 kts | 301° |
| 2026-04-22 17:32 | 48.78428 | 20.96453 | 15659 ft | 120 kts | 294° |
| 2026-04-22 17:33 | 48.78625 | 20.95218 | 15969 ft | 122 kts | 295° |
| 2026-04-22 17:33 | 48.78863 | 20.93853 | 16012 ft | 144 kts | 295° |
| 2026-04-22 17:33 | 48.79142 | 20.92288 | 16007 ft | 161 kts | 293° |
| 2026-04-22 17:33 | 48.79443 | 20.90580 | 16002 ft | 173 kts | 292° |
| 2026-04-22 17:34 | 48.79761 | 20.88775 | 16000 ft | 180 kts | 292° |
| 2026-04-22 17:34 | 48.80088 | 20.86916 | 16003 ft | 185 kts | 292° |
| 2026-04-22 17:34 | 48.80424 | 20.85014 | 16005 ft | 188 kts | 292° |
| 2026-04-22 17:34 | 48.80766 | 20.83082 | 16005 ft | 191 kts | 292° |
| 2026-04-22 17:35 | 48.81111 | 20.81134 | 16006 ft | 192 kts | 291° |
| 2026-04-22 17:35 | 48.81456 | 20.79180 | 16007 ft | 192 kts | 291° |
| 2026-04-22 17:35 | 48.81802 | 20.77225 | 16006 ft | 192 kts | 291° |
| 2026-04-22 17:35 | 48.82148 | 20.75274 | 16009 ft | 192 kts | 291° |
| 2026-04-22 17:36 | 48.82494 | 20.73319 | 16004 ft | 192 kts | 291° |
| 2026-04-22 17:36 | 48.82840 | 20.71357 | 16004 ft | 193 kts | 291° |
| 2026-04-22 17:36 | 48.83187 | 20.69386 | 16005 ft | 194 kts | 291° |
| 2026-04-22 17:36 | 48.83534 | 20.67415 | 16005 ft | 194 kts | 291° |
| 2026-04-22 17:37 | 48.83881 | 20.65440 | 16004 ft | 193 kts | 291° |
| 2026-04-22 17:37 | 48.84227 | 20.63472 | 16004 ft | 193 kts | 291° |
| 2026-04-22 17:37 | 48.84571 | 20.61510 | 16002 ft | 192 kts | 291° |
| 2026-04-22 17:37 | 48.84916 | 20.59543 | 16006 ft | 193 kts | 291° |
| 2026-04-22 17:38 | 48.85258 | 20.57593 | 16006 ft | 194 kts | 291° |
| 2026-04-22 17:38 | 48.85610 | 20.55582 | 16006 ft | 195 kts | 291° |
| 2026-04-22 17:38 | 48.85957 | 20.53594 | 15994 ft | 194 kts | 291° |
| 2026-04-22 17:38 | 48.86303 | 20.51611 | 15993 ft | 194 kts | 291° |
| 2026-04-22 17:39 | 48.86649 | 20.49626 | 15992 ft | 195 kts | 291° |
| 2026-04-22 17:39 | 48.86991 | 20.47665 | 15992 ft | 195 kts | 291° |
| 2026-04-22 17:39 | 48.87677 | 20.43704 | 15994 ft | 192 kts | 291° |
| 2026-04-22 17:40 | 48.88017 | 20.41755 | 15996 ft | 191 kts | 291° |
| 2026-04-22 17:40 | 48.88358 | 20.39798 | 15996 ft | 191 kts | 291° |
| 2026-04-22 17:40 | 48.88674 | 20.37969 | 15995 ft | 192 kts | 291° |
| 2026-04-22 17:40 | 48.89013 | 20.36004 | 15996 ft | 192 kts | 291° |
| 2026-04-22 17:41 | 48.89353 | 20.34034 | 15995 ft | 193 kts | 291° |
| 2026-04-22 17:41 | 48.89694 | 20.32057 | 15998 ft | 194 kts | 291° |
| 2026-04-22 17:41 | 48.90037 | 20.30073 | 15996 ft | 194 kts | 291° |
| 2026-04-22 17:41 | 48.90377 | 20.28094 | 15999 ft | 194 kts | 291° |
| 2026-04-22 17:42 | 48.90718 | 20.26109 | 15993 ft | 194 kts | 291° |
| 2026-04-22 17:42 | 48.91059 | 20.24126 | 15999 ft | 194 kts | 291° |
| 2026-04-22 17:42 | 48.91401 | 20.22138 | 16000 ft | 195 kts | 291° |
| 2026-04-22 17:42 | 48.91742 | 20.20146 | 15999 ft | 195 kts | 291° |
| 2026-04-22 17:43 | 48.92083 | 20.18154 | 15997 ft | 195 kts | 291° |
| 2026-04-22 17:43 | 48.92424 | 20.16165 | 15995 ft | 194 kts | 291° |
| 2026-04-22 17:43 | 48.92761 | 20.14191 | 15991 ft | 192 kts | 291° |
| 2026-04-22 17:43 | 48.93091 | 20.12233 | 16006 ft | 190 kts | 291° |
| 2026-04-22 17:44 | 48.93428 | 20.10272 | 16000 ft | 192 kts | 292° |
| 2026-04-22 17:44 | 48.93766 | 20.08299 | 16001 ft | 193 kts | 291° |
| 2026-04-22 17:44 | 48.94101 | 20.06325 | 15994 ft | 193 kts | 291° |
| 2026-04-22 17:44 | 48.94436 | 20.04349 | 16001 ft | 193 kts | 291° |
| 2026-04-22 17:45 | 48.94771 | 20.02370 | 16007 ft | 193 kts | 291° |
| 2026-04-22 17:45 | 48.95102 | 20.00409 | 16015 ft | 191 kts | 291° |
| 2026-04-22 17:45 | 48.95438 | 19.98437 | 16006 ft | 193 kts | 291° |
| 2026-04-22 17:45 | 48.95774 | 19.96458 | 16005 ft | 194 kts | 291° |
| 2026-04-22 17:46 | 48.96107 | 19.94476 | 16015 ft | 194 kts | 291° |
| 2026-04-22 17:46 | 48.96437 | 19.92512 | 16009 ft | 194 kts | 291° |
| 2026-04-22 17:46 | 48.96773 | 19.90537 | 16012 ft | 193 kts | 291° |
| 2026-04-22 17:46 | 48.97106 | 19.88550 | 16014 ft | 194 kts | 291° |
| 2026-04-22 17:47 | 48.97441 | 19.86561 | 16013 ft | 194 kts | 291° |
| 2026-04-22 17:47 | 48.97776 | 19.84567 | 16011 ft | 195 kts | 291° |
| 2026-04-22 17:47 | 48.98110 | 19.82566 | 16021 ft | 195 kts | 291° |
| 2026-04-22 17:47 | 48.98446 | 19.80562 | 16023 ft | 195 kts | 291° |
| 2026-04-22 17:48 | 48.98673 | 19.79209 | 16025 ft | 196 kts | 291° |
| 2026-04-22 17:48 | 48.99119 | 19.76542 | 16028 ft | 197 kts | 291° |
| 2026-04-22 17:48 | 48.99454 | 19.74530 | 16028 ft | 196 kts | 291° |
| 2026-04-22 17:48 | 48.99791 | 19.72515 | 16027 ft | 197 kts | 291° |
| 2026-04-22 17:49 | 49.00126 | 19.70504 | 16028 ft | 196 kts | 291° |
| 2026-04-22 17:49 | 49.00461 | 19.68493 | 16027 ft | 196 kts | 291° |
| 2026-04-22 17:49 | 49.00795 | 19.66482 | 16033 ft | 196 kts | 291° |
| 2026-04-22 17:49 | 49.01129 | 19.64469 | 16035 ft | 196 kts | 291° |
| 2026-04-22 17:50 | 49.01465 | 19.62459 | 16012 ft | 194 kts | 291° |
| 2026-04-22 17:50 | 49.01775 | 19.60458 | 16021 ft | 192 kts | 291° |
| 2026-04-22 17:50 | 49.02106 | 19.58486 | 16018 ft | 190 kts | 292° |
| 2026-04-22 17:50 | 49.02432 | 19.56564 | 16043 ft | 188 kts | 291° |
| 2026-04-22 17:51 | 49.02760 | 19.54613 | 16041 ft | 191 kts | 291° |
| 2026-04-22 17:51 | 49.03084 | 19.52645 | 16044 ft | 192 kts | 291° |
| 2026-04-22 17:51 | 49.03408 | 19.50669 | 16042 ft | 193 kts | 291° |
| 2026-04-22 17:51 | 49.03734 | 19.48688 | 16043 ft | 193 kts | 291° |
| 2026-04-22 17:52 | 49.04060 | 19.46703 | 16040 ft | 193 kts | 291° |
| 2026-04-22 17:52 | 49.04385 | 19.44719 | 16033 ft | 193 kts | 291° |
| 2026-04-22 17:52 | 49.04706 | 19.42763 | 16039 ft | 193 kts | 291° |
| 2026-04-22 17:52 | 49.05032 | 19.40775 | 16040 ft | 194 kts | 291° |
| 2026-04-22 17:53 | 49.05357 | 19.38782 | 16040 ft | 194 kts | 291° |
| 2026-04-22 17:53 | 49.05682 | 19.36790 | 16049 ft | 194 kts | 291° |
| 2026-04-22 17:53 | 49.06007 | 19.34797 | 16039 ft | 193 kts | 291° |
| 2026-04-22 17:53 | 49.06331 | 19.32808 | 16061 ft | 193 kts | 291° |
| 2026-04-22 17:54 | 49.06647 | 19.30854 | 16156 ft | 189 kts | 291° |
| 2026-04-22 17:54 | 49.06966 | 19.28902 | 16154 ft | 190 kts | 291° |
| 2026-04-22 17:54 | 49.07287 | 19.26932 | 16152 ft | 192 kts | 291° |
| 2026-04-22 17:54 | 49.07608 | 19.24949 | 16161 ft | 193 kts | 291° |
| 2026-04-22 17:55 | 49.07827 | 19.23600 | 16154 ft | 194 kts | 291° |
| 2026-04-22 17:55 | 49.08256 | 19.20950 | 16152 ft | 194 kts | 291° |
| 2026-04-22 17:55 | 49.08578 | 19.18949 | 16153 ft | 195 kts | 291° |
| 2026-04-22 17:55 | 49.08901 | 19.16947 | 16155 ft | 194 kts | 291° |
| 2026-04-22 17:56 | 49.09223 | 19.14946 | 16159 ft | 193 kts | 291° |
| 2026-04-22 17:56 | 49.09545 | 19.12952 | 16161 ft | 194 kts | 291° |
| 2026-04-22 17:56 | 49.09867 | 19.10945 | 16168 ft | 195 kts | 291° |
| 2026-04-22 17:56 | 49.10191 | 19.08936 | 16161 ft | 194 kts | 291° |
| 2026-04-22 17:57 | 49.10511 | 19.06929 | 16158 ft | 194 kts | 291° |
| 2026-04-22 17:57 | 49.10833 | 19.04924 | 16166 ft | 195 kts | 291° |
| 2026-04-22 17:57 | 49.11154 | 19.02922 | 16162 ft | 194 kts | 291° |
| 2026-04-22 17:57 | 49.11473 | 19.00921 | 16162 ft | 194 kts | 291° |
| 2026-04-22 17:58 | 49.11793 | 18.98920 | 16166 ft | 194 kts | 291° |
| 2026-04-22 17:58 | 49.12112 | 18.96918 | 16172 ft | 194 kts | 291° |
| 2026-04-22 17:58 | 49.12431 | 18.94914 | 16168 ft | 194 kts | 291° |
| 2026-04-22 17:58 | 49.12749 | 18.92906 | 16164 ft | 194 kts | 291° |
| 2026-04-22 17:59 | 49.13067 | 18.90908 | 16161 ft | 193 kts | 291° |
| 2026-04-22 17:59 | 49.13381 | 18.88934 | 16167 ft | 194 kts | 291° |
| 2026-04-22 17:59 | 49.13699 | 18.86926 | 16172 ft | 195 kts | 291° |
| 2026-04-22 17:59 | 49.14019 | 18.84903 | 16170 ft | 196 kts | 291° |
| 2026-04-22 18:00 | 49.14235 | 18.83538 | 16166 ft | 195 kts | 291° |
| 2026-04-22 18:00 | 49.14656 | 18.80869 | 16180 ft | 195 kts | 291° |
| 2026-04-22 18:00 | 49.14974 | 18.78856 | 16184 ft | 195 kts | 291° |
| 2026-04-22 18:00 | 49.15292 | 18.76833 | 16183 ft | 196 kts | 291° |
| 2026-04-22 18:01 | 49.15609 | 18.74814 | 16184 ft | 195 kts | 291° |
| 2026-04-22 18:01 | 49.15926 | 18.72796 | 16184 ft | 195 kts | 291° |
| 2026-04-22 18:01 | 49.16242 | 18.70780 | 16193 ft | 195 kts | 291° |
| 2026-04-22 18:01 | 49.16560 | 18.68755 | 16186 ft | 196 kts | 291° |
| 2026-04-22 18:02 | 49.16879 | 18.66728 | 16185 ft | 196 kts | 291° |
| 2026-04-22 18:02 | 49.17195 | 18.64701 | 16185 ft | 196 kts | 291° |
| 2026-04-22 18:02 | 49.17511 | 18.62674 | 16185 ft | 196 kts | 291° |
| 2026-04-22 18:02 | 49.17827 | 18.60648 | 16182 ft | 196 kts | 291° |
| 2026-04-22 18:03 | 49.18141 | 18.58628 | 16178 ft | 195 kts | 291° |
| 2026-04-22 18:03 | 49.18453 | 18.56623 | 16181 ft | 193 kts | 291° |
| 2026-04-22 18:03 | 49.18762 | 18.54632 | 16187 ft | 193 kts | 291° |
| 2026-04-22 18:03 | 49.19074 | 18.52624 | 16187 ft | 194 kts | 291° |
| 2026-04-22 18:04 | 49.19386 | 18.50614 | 16188 ft | 194 kts | 291° |
| 2026-04-22 18:04 | 49.19692 | 18.48630 | 16189 ft | 194 kts | 291° |
| 2026-04-22 18:04 | 49.20007 | 18.46595 | 16186 ft | 194 kts | 291° |
| 2026-04-22 18:04 | 49.20317 | 18.44592 | 16182 ft | 193 kts | 291° |
| 2026-04-22 18:05 | 49.20626 | 18.42587 | 16183 ft | 194 kts | 291° |
| 2026-04-22 18:05 | 49.20936 | 18.40574 | 16183 ft | 195 kts | 291° |
| 2026-04-22 18:05 | 49.21241 | 18.38584 | 16183 ft | 194 kts | 291° |
| 2026-04-22 18:05 | 49.21530 | 18.36567 | 16190 ft | 195 kts | 289° |
| 2026-04-22 18:06 | 49.21762 | 18.34520 | 16192 ft | 195 kts | 286° |
| 2026-04-22 18:06 | 49.21973 | 18.32474 | 16198 ft | 195 kts | 287° |
| 2026-04-22 18:06 | 49.22191 | 18.30416 | 16190 ft | 196 kts | 287° |
| 2026-04-22 18:06 | 49.22413 | 18.28359 | 16186 ft | 196 kts | 287° |
| 2026-04-22 18:07 | 49.22561 | 18.26994 | 16185 ft | 196 kts | 287° |
| 2026-04-22 18:07 | 49.22853 | 18.24246 | 16192 ft | 196 kts | 287° |
| 2026-04-22 18:07 | 49.23075 | 18.22182 | 16189 ft | 197 kts | 287° |
| 2026-04-22 18:07 | 49.23295 | 18.20115 | 16191 ft | 197 kts | 287° |
| 2026-04-22 18:08 | 49.23516 | 18.18040 | 16190 ft | 198 kts | 287° |
| 2026-04-22 18:08 | 49.23736 | 18.15958 | 16190 ft | 198 kts | 287° |
| 2026-04-22 18:08 | 49.23957 | 18.13874 | 16189 ft | 198 kts | 287° |
| 2026-04-22 18:08 | 49.24178 | 18.11794 | 16191 ft | 198 kts | 287° |
| 2026-04-22 18:09 | 49.24398 | 18.09715 | 16192 ft | 198 kts | 287° |
| 2026-04-22 18:09 | 49.24617 | 18.07630 | 16195 ft | 198 kts | 287° |
| 2026-04-22 18:09 | 49.24837 | 18.05545 | 16193 ft | 199 kts | 287° |
| 2026-04-22 18:09 | 49.25056 | 18.03455 | 16192 ft | 199 kts | 287° |
| 2026-04-22 18:10 | 49.25275 | 18.01366 | 16181 ft | 199 kts | 287° |
| 2026-04-22 18:10 | 49.25491 | 17.99292 | 16192 ft | 197 kts | 287° |
| 2026-04-22 18:10 | 49.25708 | 17.97219 | 16196 ft | 198 kts | 287° |
| 2026-04-22 18:10 | 49.25925 | 17.95166 | 16193 ft | 198 kts | 287° |
| 2026-04-22 18:11 | 49.26144 | 17.93055 | 16192 ft | 198 kts | 287° |
| 2026-04-22 18:11 | 49.26358 | 17.90996 | 16191 ft | 198 kts | 287° |
| 2026-04-22 18:11 | 49.26574 | 17.88914 | 16192 ft | 198 kts | 287° |
| 2026-04-22 18:11 | 49.26790 | 17.86830 | 16194 ft | 198 kts | 287° |
| 2026-04-22 18:12 | 49.27006 | 17.84743 | 16193 ft | 199 kts | 287° |
| 2026-04-22 18:12 | 49.27220 | 17.82656 | 16190 ft | 198 kts | 287° |
| 2026-04-22 18:12 | 49.27365 | 17.81247 | 16191 ft | 198 kts | 287° |
| 2026-04-22 18:12 | 49.27648 | 17.78494 | 16191 ft | 198 kts | 287° |
| 2026-04-22 18:13 | 49.27862 | 17.76417 | 16191 ft | 197 kts | 287° |
| 2026-04-22 18:13 | 49.28075 | 17.74341 | 16191 ft | 198 kts | 287° |
| 2026-04-22 18:13 | 49.28287 | 17.72268 | 16191 ft | 198 kts | 287° |
| 2026-04-22 18:13 | 49.28499 | 17.70183 | 16191 ft | 198 kts | 287° |
| 2026-04-22 18:14 | 49.28712 | 17.68101 | 16195 ft | 198 kts | 287° |
| 2026-04-22 18:14 | 49.28923 | 17.66020 | 16195 ft | 198 kts | 287° |
| 2026-04-22 18:14 | 49.29134 | 17.63940 | 16195 ft | 198 kts | 287° |
| 2026-04-22 18:14 | 49.29345 | 17.61859 | 16195 ft | 198 kts | 287° |
| 2026-04-22 18:15 | 49.29555 | 17.59774 | 16200 ft | 198 kts | 287° |
| 2026-04-22 18:15 | 49.29765 | 17.57694 | 16201 ft | 198 kts | 287° |
| 2026-04-22 18:15 | 49.29977 | 17.55610 | 16201 ft | 198 kts | 287° |
| 2026-04-22 18:15 | 49.30187 | 17.53523 | 16201 ft | 198 kts | 287° |
| 2026-04-22 18:16 | 49.30395 | 17.51442 | 16201 ft | 198 kts | 287° |
| 2026-04-22 18:16 | 49.30604 | 17.49351 | 16200 ft | 198 kts | 287° |
| 2026-04-22 18:16 | 49.30813 | 17.47268 | 16200 ft | 198 kts | 287° |
| 2026-04-22 18:16 | 49.31021 | 17.45183 | 16200 ft | 198 kts | 287° |
| 2026-04-22 18:17 | 49.31228 | 17.43100 | 16201 ft | 198 kts | 287° |
| 2026-04-22 18:17 | 49.31365 | 17.41720 | 16201 ft | 198 kts | 287° |
| 2026-04-22 18:17 | 49.31640 | 17.38959 | 16201 ft | 198 kts | 287° |
| 2026-04-22 18:17 | 49.31846 | 17.36875 | 16200 ft | 198 kts | 287° |
| 2026-04-22 18:18 | 49.32052 | 17.34789 | 16198 ft | 198 kts | 287° |
| 2026-04-22 18:18 | 49.32259 | 17.32697 | 16198 ft | 198 kts | 287° |
| 2026-04-22 18:18 | 49.32465 | 17.30605 | 16198 ft | 199 kts | 287° |
| 2026-04-22 18:18 | 49.32671 | 17.28508 | 16198 ft | 199 kts | 287° |
| 2026-04-22 18:19 | 49.32810 | 17.27093 | 16198 ft | 199 kts | 286° |
| 2026-04-22 18:19 | 49.33015 | 17.24996 | 16197 ft | 199 kts | 286° |
| 2026-04-22 18:19 | 49.33220 | 17.22902 | 16197 ft | 199 kts | 286° |
| 2026-04-22 18:19 | 49.33424 | 17.20808 | 16197 ft | 199 kts | 286° |
| 2026-04-22 18:20 | 49.33625 | 17.18745 | 16197 ft | 198 kts | 286° |
| 2026-04-22 18:20 | 49.33828 | 17.16654 | 16197 ft | 198 kts | 286° |
| 2026-04-22 18:20 | 49.34031 | 17.14566 | 16190 ft | 198 kts | 287° |
| 2026-04-22 18:20 | 49.34236 | 17.12453 | 16195 ft | 198 kts | 287° |
| 2026-04-22 18:21 | 49.34436 | 17.10388 | 16197 ft | 198 kts | 287° |
| 2026-04-22 18:21 | 49.34638 | 17.08296 | 16198 ft | 199 kts | 287° |
| 2026-04-22 18:21 | 49.34840 | 17.06196 | 16196 ft | 199 kts | 287° |
| 2026-04-22 18:21 | 49.35041 | 17.04097 | 16198 ft | 199 kts | 287° |
| 2026-04-22 18:22 | 49.35242 | 17.02002 | 16195 ft | 199 kts | 287° |
| 2026-04-22 18:22 | 49.35444 | 16.99902 | 16197 ft | 199 kts | 287° |
| 2026-04-22 18:22 | 49.35644 | 16.97803 | 16199 ft | 199 kts | 287° |
| 2026-04-22 18:22 | 49.35843 | 16.95706 | 16200 ft | 199 kts | 287° |
| 2026-04-22 18:23 | 49.36043 | 16.93607 | 16198 ft | 199 kts | 287° |
| 2026-04-22 18:23 | 49.36243 | 16.91508 | 16199 ft | 199 kts | 287° |
| 2026-04-22 18:23 | 49.36442 | 16.89410 | 16199 ft | 199 kts | 287° |
| 2026-04-22 18:24 | 49.36839 | 16.85207 | 16196 ft | 199 kts | 286° |
| 2026-04-22 18:24 | 49.37037 | 16.83107 | 16196 ft | 199 kts | 286° |
| 2026-04-22 18:24 | 49.37431 | 16.78904 | 16200 ft | 199 kts | 286° |
| 2026-04-22 18:25 | 49.37628 | 16.76803 | 16197 ft | 199 kts | 286° |
| 2026-04-22 18:25 | 49.37824 | 16.74707 | 16197 ft | 198 kts | 286° |
| 2026-04-22 18:25 | 49.38020 | 16.72612 | 16198 ft | 198 kts | 286° |
| 2026-04-22 18:26 | 49.38408 | 16.68426 | 16200 ft | 198 kts | 286° |
| 2026-04-22 18:26 | 49.38602 | 16.66340 | 16201 ft | 198 kts | 286° |
| 2026-04-22 18:26 | 49.38795 | 16.64252 | 16200 ft | 198 kts | 286° |
| 2026-04-22 18:26 | 49.38989 | 16.62160 | 16209 ft | 198 kts | 286° |
| 2026-04-22 18:27 | 49.39182 | 16.60063 | 16209 ft | 199 kts | 286° |
| 2026-04-22 18:27 | 49.39376 | 16.57958 | 16209 ft | 199 kts | 286° |
| 2026-04-22 18:27 | 49.39569 | 16.55850 | 16207 ft | 199 kts | 286° |
| 2026-04-22 18:27 | 49.39761 | 16.53742 | 16207 ft | 199 kts | 286° |
| 2026-04-22 18:28 | 49.39953 | 16.51640 | 16203 ft | 199 kts | 286° |
| 2026-04-22 18:28 | 49.40143 | 16.49571 | 16204 ft | 198 kts | 286° |
| 2026-04-22 18:28 | 49.40335 | 16.47451 | 16206 ft | 198 kts | 286° |
| 2026-04-22 18:28 | 49.40523 | 16.45383 | 16207 ft | 198 kts | 286° |
| 2026-04-22 18:29 | 49.40713 | 16.43288 | 16211 ft | 198 kts | 286° |
| 2026-04-22 18:29 | 49.40902 | 16.41193 | 16211 ft | 198 kts | 286° |
| 2026-04-22 18:29 | 49.41092 | 16.39098 | 16214 ft | 199 kts | 286° |
| 2026-04-22 18:29 | 49.41282 | 16.36995 | 16210 ft | 199 kts | 286° |
| 2026-04-22 18:30 | 49.41471 | 16.34893 | 16212 ft | 199 kts | 286° |
| 2026-04-22 18:30 | 49.41846 | 16.30684 | 16212 ft | 199 kts | 286° |
| 2026-04-22 18:30 | 49.42035 | 16.28575 | 16209 ft | 199 kts | 286° |
| 2026-04-22 18:31 | 49.42223 | 16.26468 | 16218 ft | 198 kts | 286° |
| 2026-04-22 18:31 | 49.42409 | 16.24378 | 16220 ft | 197 kts | 286° |
| 2026-04-22 18:31 | 49.42594 | 16.22291 | 16220 ft | 197 kts | 286° |
| 2026-04-22 18:31 | 49.42781 | 16.20197 | 16223 ft | 198 kts | 286° |
| 2026-04-22 18:32 | 49.42966 | 16.18093 | 16223 ft | 199 kts | 286° |
| 2026-04-22 18:32 | 49.43152 | 16.15984 | 16222 ft | 199 kts | 286° |
| 2026-04-22 18:32 | 49.43337 | 16.13876 | 16222 ft | 199 kts | 286° |
| 2026-04-22 18:32 | 49.43522 | 16.11772 | 16222 ft | 199 kts | 286° |
| 2026-04-22 18:33 | 49.43707 | 16.09666 | 16228 ft | 199 kts | 286° |
| 2026-04-22 18:33 | 49.43888 | 16.07592 | 16229 ft | 199 kts | 286° |
| 2026-04-22 18:33 | 49.44072 | 16.05484 | 16229 ft | 199 kts | 286° |
| 2026-04-22 18:33 | 49.44256 | 16.03375 | 16229 ft | 199 kts | 286° |
| 2026-04-22 18:34 | 49.44439 | 16.01265 | 16232 ft | 199 kts | 285° |
| 2026-04-22 18:34 | 49.44622 | 15.99156 | 16230 ft | 199 kts | 286° |
| 2026-04-22 18:34 | 49.44804 | 15.97054 | 16232 ft | 198 kts | 286° |
| 2026-04-22 18:34 | 49.44985 | 15.94953 | 16231 ft | 198 kts | 285° |
| 2026-04-22 18:35 | 49.45166 | 15.92852 | 16229 ft | 199 kts | 286° |
| 2026-04-22 18:35 | 49.45347 | 15.90745 | 16235 ft | 199 kts | 285° |
| 2026-04-22 18:35 | 49.45529 | 15.88636 | 16234 ft | 199 kts | 285° |
| 2026-04-22 18:35 | 49.45709 | 15.86523 | 16236 ft | 200 kts | 285° |
| 2026-04-22 18:36 | 49.45890 | 15.84407 | 16236 ft | 200 kts | 285° |
| 2026-04-22 18:36 | 49.46070 | 15.82288 | 16229 ft | 199 kts | 285° |
| 2026-04-22 18:36 | 49.46248 | 15.80183 | 16237 ft | 199 kts | 285° |
| 2026-04-22 18:36 | 49.46517 | 15.78124 | 16233 ft | 193 kts | 298° |
| 2026-04-22 18:37 | 49.47079 | 15.76295 | 16236 ft | 188 kts | 306° |
| 2026-04-22 18:37 | 49.47685 | 15.74512 | 16244 ft | 188 kts | 307° |
| 2026-04-22 18:37 | 49.48295 | 15.72728 | 16244 ft | 189 kts | 307° |
| 2026-04-22 18:37 | 49.48904 | 15.70937 | 16247 ft | 189 kts | 307° |
| 2026-04-22 18:38 | 49.49511 | 15.69145 | 16236 ft | 189 kts | 306° |
| 2026-04-22 18:38 | 49.50118 | 15.67352 | 16242 ft | 189 kts | 306° |
| 2026-04-22 18:38 | 49.50725 | 15.65561 | 16237 ft | 189 kts | 306° |
| 2026-04-22 18:39 | 49.51938 | 15.61974 | 16233 ft | 189 kts | 306° |
| 2026-04-22 18:39 | 49.52544 | 15.60182 | 16242 ft | 189 kts | 306° |
| 2026-04-22 18:39 | 49.53150 | 15.58386 | 16240 ft | 189 kts | 306° |
| 2026-04-22 18:39 | 49.53755 | 15.56596 | 16236 ft | 188 kts | 306° |
| 2026-04-22 18:40 | 49.54359 | 15.54806 | 16194 ft | 191 kts | 306° |
| 2026-04-22 18:40 | 49.54986 | 15.52955 | 15927 ft | 196 kts | 306° |
| 2026-04-22 18:40 | 49.55606 | 15.51107 | 15674 ft | 193 kts | 306° |
| 2026-04-22 18:40 | 49.56211 | 15.49304 | 15423 ft | 191 kts | 306° |
| 2026-04-22 18:41 | 49.56815 | 15.47501 | 15248 ft | 185 kts | 306° |
| 2026-04-22 18:41 | 49.57400 | 15.45753 | 15250 ft | 184 kts | 306° |
| 2026-04-22 18:41 | 49.57989 | 15.44004 | 15249 ft | 184 kts | 306° |
| 2026-04-22 18:41 | 49.58581 | 15.42244 | 15241 ft | 186 kts | 306° |
| 2026-04-22 18:42 | 49.59175 | 15.40476 | 15247 ft | 186 kts | 306° |
| 2026-04-22 18:42 | 49.59768 | 15.38704 | 15248 ft | 186 kts | 306° |
| 2026-04-22 18:42 | 49.60362 | 15.36930 | 15242 ft | 187 kts | 306° |
| 2026-04-22 18:42 | 49.60958 | 15.35151 | 15243 ft | 187 kts | 306° |
| 2026-04-22 18:43 | 49.61552 | 15.33372 | 15250 ft | 187 kts | 306° |
| 2026-04-22 18:43 | 49.62147 | 15.31592 | 15243 ft | 186 kts | 306° |
| 2026-04-22 18:43 | 49.62740 | 15.29814 | 15248 ft | 186 kts | 306° |
| 2026-04-22 18:43 | 49.63334 | 15.28036 | 15251 ft | 187 kts | 306° |
| 2026-04-22 18:44 | 49.63927 | 15.26254 | 15251 ft | 186 kts | 306° |
| 2026-04-22 18:44 | 49.64520 | 15.24479 | 15246 ft | 186 kts | 306° |
| 2026-04-22 18:44 | 49.65113 | 15.22698 | 15252 ft | 186 kts | 306° |
| 2026-04-22 18:44 | 49.65705 | 15.20916 | 15248 ft | 187 kts | 306° |
| 2026-04-22 18:45 | 49.66297 | 15.19135 | 15245 ft | 186 kts | 306° |
| 2026-04-22 18:45 | 49.66888 | 15.17357 | 15242 ft | 186 kts | 306° |
| 2026-04-22 18:45 | 49.67478 | 15.15581 | 15248 ft | 186 kts | 306° |
| 2026-04-22 18:45 | 49.68067 | 15.13806 | 15250 ft | 186 kts | 306° |
| 2026-04-22 18:46 | 49.68655 | 15.12031 | 15255 ft | 186 kts | 306° |
| 2026-04-22 18:46 | 49.69262 | 15.10209 | 15021 ft | 193 kts | 306° |
| 2026-04-22 18:46 | 49.69866 | 15.08382 | 14773 ft | 189 kts | 306° |
| 2026-04-22 18:46 | 49.70480 | 15.06610 | 14526 ft | 183 kts | 312° |
| 2026-04-22 18:47 | 49.71235 | 15.05061 | 14283 ft | 179 kts | 316° |
| 2026-04-22 18:47 | 49.71996 | 15.03548 | 14021 ft | 178 kts | 317° |
| 2026-04-22 18:47 | 49.72752 | 15.02045 | 13752 ft | 177 kts | 316° |
| 2026-04-22 18:47 | 49.73503 | 15.00549 | 13478 ft | 175 kts | 316° |
| 2026-04-22 18:48 | 49.74246 | 14.99066 | 13213 ft | 173 kts | 316° |
| 2026-04-22 18:48 | 49.74970 | 14.97619 | 12953 ft | 172 kts | 316° |
| 2026-04-22 18:48 | 49.75699 | 14.96163 | 12695 ft | 171 kts | 316° |
| 2026-04-22 18:48 | 49.76426 | 14.94713 | 12435 ft | 171 kts | 316° |
| 2026-04-22 18:49 | 49.77150 | 14.93263 | 12170 ft | 170 kts | 316° |
| 2026-04-22 18:49 | 49.77868 | 14.91829 | 11908 ft | 168 kts | 316° |
| 2026-04-22 18:49 | 49.78578 | 14.90408 | 11660 ft | 166 kts | 316° |
| 2026-04-22 18:49 | 49.79285 | 14.88991 | 11406 ft | 166 kts | 316° |
| 2026-04-22 18:50 | 49.79988 | 14.87581 | 11159 ft | 165 kts | 315° |
| 2026-04-22 18:50 | 49.80697 | 14.86149 | 10908 ft | 173 kts | 315° |
| 2026-04-22 18:50 | 49.81448 | 14.84630 | 10659 ft | 181 kts | 314° |
| 2026-04-22 18:50 | 49.82222 | 14.83061 | 10412 ft | 185 kts | 314° |
| 2026-04-22 18:51 | 49.83003 | 14.81473 | 10266 ft | 183 kts | 314° |
| 2026-04-22 18:51 | 49.83753 | 14.79943 | 10260 ft | 175 kts | 314° |
| 2026-04-22 18:51 | 49.84479 | 14.78465 | 10262 ft | 170 kts | 314° |
| 2026-04-22 18:51 | 49.85192 | 14.77018 | 10261 ft | 168 kts | 314° |
| 2026-04-22 18:52 | 49.85898 | 14.75586 | 10264 ft | 166 kts | 315° |
| 2026-04-22 18:52 | 49.86598 | 14.74164 | 10265 ft | 165 kts | 315° |
| 2026-04-22 18:52 | 49.87311 | 14.72724 | 9929 ft | 170 kts | 314° |
| 2026-04-22 18:52 | 49.88021 | 14.71284 | 9524 ft | 166 kts | 314° |
| 2026-04-22 18:53 | 49.88718 | 14.69863 | 9127 ft | 165 kts | 314° |
| 2026-04-22 18:53 | 49.89408 | 14.68457 | 8734 ft | 164 kts | 314° |
| 2026-04-22 18:53 | 49.90108 | 14.67043 | 8333 ft | 166 kts | 314° |
| 2026-04-22 18:53 | 49.90818 | 14.65621 | 7946 ft | 167 kts | 314° |
| 2026-04-22 18:54 | 49.91536 | 14.64201 | 7573 ft | 168 kts | 314° |
| 2026-04-22 18:54 | 49.92252 | 14.62796 | 7205 ft | 168 kts | 312° |
| 2026-04-22 18:54 | 49.92946 | 14.61329 | 6834 ft | 169 kts | 311° |
| 2026-04-22 18:54 | 49.93636 | 14.59865 | 6452 ft | 167 kts | 311° |
| 2026-04-22 18:55 | 49.94338 | 14.58436 | 6072 ft | 165 kts | 312° |
| 2026-04-22 18:55 | 49.95017 | 14.57036 | 5851 ft | 161 kts | 312° |
| 2026-04-22 18:55 | 49.95688 | 14.55662 | 5632 ft | 159 kts | 312° |
| 2026-04-22 18:55 | 49.96350 | 14.54299 | 5419 ft | 157 kts | 312° |
| 2026-04-22 18:56 | 49.97005 | 14.52955 | 5208 ft | 155 kts | 312° |
| 2026-04-22 18:56 | 49.97648 | 14.51632 | 5000 ft | 153 kts | 311° |
| 2026-04-22 18:56 | 49.98291 | 14.50315 | 4787 ft | 152 kts | 312° |
| 2026-04-22 18:56 | 49.98926 | 14.49008 | 4576 ft | 151 kts | 311° |
| 2026-04-22 18:57 | 49.99557 | 14.47713 | 4365 ft | 150 kts | 312° |
| 2026-04-22 18:57 | 50.00185 | 14.46423 | 4161 ft | 150 kts | 311° |
| 2026-04-22 18:57 | 50.00813 | 14.45127 | 3956 ft | 150 kts | 311° |
| 2026-04-22 18:57 | 50.01444 | 14.43832 | 3752 ft | 150 kts | 311° |
| 2026-04-22 18:58 | 50.02075 | 14.42533 | 3546 ft | 150 kts | 310° |
| 2026-04-22 18:58 | 50.02703 | 14.41236 | 3341 ft | 150 kts | 311° |
| 2026-04-22 18:58 | 50.03332 | 14.39951 | 3132 ft | 149 kts | 310° |
| 2026-04-22 18:58 | 50.03954 | 14.38660 | 2938 ft | 149 kts | 311° |
| 2026-04-22 18:59 | 50.04576 | 14.37385 | 2730 ft | 146 kts | 311° |
| 2026-04-22 18:59 | 50.05185 | 14.36131 | 2524 ft | 142 kts | 311° |
| 2026-04-22 18:59 | 50.05725 | 14.35011 | 2352 ft | 119 kts | 312° |
| 2026-04-22 18:59 | 50.06190 | 14.34051 | 2224 ft | 103 kts | 312° |
| 2026-04-22 19:00 | 50.06612 | 14.33186 | 2055 ft | 96 kts | 311° |
| 2026-04-22 19:00 | 50.07006 | 14.32374 | 1922 ft | 92 kts | 310° |
| 2026-04-22 19:00 | 50.07388 | 14.31586 | 1791 ft | 90 kts | 311° |
| 2026-04-22 19:00 | 50.07775 | 14.30817 | 1713 ft | 91 kts | 309° |
| 2026-04-22 19:01 | 50.08162 | 14.30014 | 1584 ft | 94 kts | 307° |
| 2026-04-22 19:01 | 50.08536 | 14.29207 | 1432 ft | 88 kts | 308° |
| 2026-04-22 19:01 | 50.08883 | 14.28504 | 1357 ft | 80 kts | 309° |
| 2026-04-22 19:01 | 50.09215 | 14.27821 | 1242 ft | 71 kts | 311° |
| 2026-04-22 19:02 | 50.09448 | 14.27346 | 1212 ft | 43 kts | 308° |
| 2026-04-22 19:02 | 50.09592 | 14.27043 | 1209 ft | 31 kts | 307° |
| 2026-04-22 19:02 | 50.09736 | 14.26746 | 1210 ft | 30 kts | 306° |
| 2026-04-22 19:02 | 50.09835 | 14.26581 | 1208 ft | 14 kts | 359° |
| 2026-04-22 19:03 | 50.09880 | 14.26676 | 1207 ft | 5 kts | 75° |
| 2026-04-22 19:03 | 50.09880 | 14.26677 | 1207 ft | 0 kts | 76° |
| 2026-04-22 19:03 | 50.09885 | 14.26723 | 1207 ft | 14 kts | 81° |
| 2026-04-22 19:04 | 50.09905 | 14.26950 | 1203 ft | 23 kts | 81° |
| 2026-04-22 19:04 | 50.09925 | 14.27169 | 1200 ft | 17 kts | 87° |
| 2026-04-22 19:04 | 50.09942 | 14.27354 | 1198 ft | 17 kts | 84° |
| 2026-04-22 19:04 | 50.09959 | 14.27540 | 1195 ft | 18 kts | 82° |
| 2026-04-22 19:05 | 50.09976 | 14.27731 | 1193 ft | 18 kts | 79° |
| 2026-04-22 19:05 | 50.09995 | 14.27919 | 1190 ft | 18 kts | 81° |
| 2026-04-22 19:05 | 50.10004 | 14.28105 | 1189 ft | 13 kts | 96° |
| 2026-04-22 19:05 | 50.09965 | 14.28233 | 1192 ft | 12 kts | 118° |
| 2026-04-22 19:06 | 50.09930 | 14.28333 | 1196 ft | 13 kts | 117° |
| 2026-04-22 19:06 | 50.09901 | 14.28454 | 1201 ft | 11 kts | 78° |
| 2026-04-22 19:06 | 50.09958 | 14.28530 | 1202 ft | 11 kts | 37° |
| 2026-04-22 19:07 | 50.09953 | 14.28554 | 1202 ft | 5 kts | 132° |
| 2026-04-22 19:07 | 50.09931 | 14.28567 | 1203 ft | 0 kts | 201° |
| 2026-04-22 19:07 | 50.09924 | 14.28562 | 1203 ft | 4 kts | 208° |
| 2026-04-22 19:08 | 50.09921 | 14.28561 | 1203 ft | 0 kts | 189° |